Jacky L O'neal — WDG3892 — position and weather

sailwx.info

Track history (hours):
 
Tides and Currents Weather Stations Pressure Air Temp Water Temp Dewpoint Dewpoint Depression Visibility Wind Speed Wind Dir Waves Ship Positions

Jacky L O'neal

Owner: American Commercial Lines LLC, Jeffersonville, IN. More information available from US FCC via Universal Licensing System and Coast Guard Vessel Documentation Center.

Last reported at 2016-Jun-28 21:18 UTC. Time now 2016-Jul-01 13:34 UTC.
Position N 31°59' W 091°07'.

Length 55 m; draft 3.4 m.

Type: Tow > 200 m length. MMSI: 367530760.

Date/timePositionNaut miles runAvg speedWind from/ knotsBaromVisibWave heightAir tempDewpointWater temp
2016-Jun-28 21:18N 31°59' W 091°07'5 6.9
2016-Jun-28 20:33N 32°03' W 091°04'5 5.2
2016-Jun-28 19:33N 32°08' W 091°06'5 5.3
2016-Jun-28 18:33N 32°09' W 091°00'8 7.6
2016-Jun-28 17:33N 32°16' W 090°57'5 4.5
2016-Jun-28 16:33N 32°21' W 090°57'5 5.4
2016-Jun-28 15:33N 32°25' W 091°01'7 6.7
2016-Jun-28 14:33N 32°30' W 091°07'7 7.1
2016-Jun-28 13:33N 32°37' W 091°09'8 6.3
2016-Jun-28 12:13N 32°44' W 091°04'  
2016-Jun-20 20:05N 32°40' W 091°07'2 3.7
2016-Jun-20 19:33N 32°39' W 091°08'4 4.3
2016-Jun-20 18:33N 32°35' W 091°08'4 4.1
2016-Jun-20 17:33N 32°31' W 091°06'4 4.3
2016-Jun-20 16:33N 32°27' W 091°05'5 4.5
2016-Jun-20 15:33N 32°25' W 091°00'3 3.1
2016-Jun-20 14:33N 32°22' W 091°00'4 4.1
2016-Jun-20 13:33N 32°21' W 090°56'3 3.3
2016-Jun-20 12:33N 32°18' W 090°56'4 4.3
2016-Jun-20 11:33N 32°14' W 090°59'5 4.8
2016-Jun-20 10:33N 32°09' W 091°00'4 3.5
2016-Jun-20 09:30N 32°08' W 091°04'2 2.4
2016-Jun-20 08:33N 32°06' W 091°06'1 0.7
2016-Jun-20 07:27N 32°05' W 091°05'0 0.2
2016-Jun-20 05:21N 32°05' W 091°04'3 3.9
2016-Jun-20 04:33N 32°02' W 091°04'10 4.2
2016-Jun-20 02:07N 31°54' W 091°12'8 4.1
2016-Jun-20 00:06N 31°51' W 091°21'  
Track history (hours):
 
Tides and Currents Weather Stations Pressure Air Temp Water Temp Dewpoint Dewpoint Depression Visibility Wind Speed Wind Dir Waves Ship Positions

Jacky L O'neal

Owner: American Commercial Lines LLC, Jeffersonville, IN. More information available from US FCC via Universal Licensing System and Coast Guard Vessel Documentation Center.

Last reported at 2016-Jun-28 21:18 UTC. Time now 2016-Jul-01 13:34 UTC.
Position N 31°59' W 091°07'.

Length 55 m; draft 3.4 m.

Type: Tow > 200 m length. MMSI: 367530760.

Date/timePositionNaut miles runAvg speedWind from/ knotsBaromVisibWave heightAir tempDewpointWater temp
2016-Jun-28 21:18N 31°59' W 091°07'5 6.9
2016-Jun-28 20:33N 32°03' W 091°04'5 5.2
2016-Jun-28 19:33N 32°08' W 091°06'5 5.3
2016-Jun-28 18:33N 32°09' W 091°00'8 7.6
2016-Jun-28 17:33N 32°16' W 090°57'5 4.5
2016-Jun-28 16:33N 32°21' W 090°57'5 5.4
2016-Jun-28 15:33N 32°25' W 091°01'7 6.7
2016-Jun-28 14:33N 32°30' W 091°07'7 7.1
2016-Jun-28 13:33N 32°37' W 091°09'8 6.3
2016-Jun-28 12:13N 32°44' W 091°04'  
2016-Jun-20 20:05N 32°40' W 091°07'2 3.7
2016-Jun-20 19:33N 32°39' W 091°08'4 4.3
2016-Jun-20 18:33N 32°35' W 091°08'4 4.1
2016-Jun-20 17:33N 32°31' W 091°06'4 4.3
2016-Jun-20 16:33N 32°27' W 091°05'5 4.5
2016-Jun-20 15:33N 32°25' W 091°00'3 3.1
2016-Jun-20 14:33N 32°22' W 091°00'4 4.1
2016-Jun-20 13:33N 32°21' W 090°56'3 3.3
2016-Jun-20 12:33N 32°18' W 090°56'4 4.3
2016-Jun-20 11:33N 32°14' W 090°59'5 4.8
2016-Jun-20 10:33N 32°09' W 091°00'4 3.5
2016-Jun-20 09:30N 32°08' W 091°04'2 2.4
2016-Jun-20 08:33N 32°06' W 091°06'1 0.7
2016-Jun-20 07:27N 32°05' W 091°05'0 0.2
2016-Jun-20 05:21N 32°05' W 091°04'3 3.9
2016-Jun-20 04:33N 32°02' W 091°04'10 4.2
2016-Jun-20 02:07N 31°54' W 091°12'8 4.1
2016-Jun-20 00:06N 31°51' W 091°21'  

Dump ship's entire track history